Time;durP1;ratioP1;P1;durP2;ratioP2;P2;SDS_P1;SDS_P2;PMS_P1;PMS_P2;Temp;Humidity;BMP_temperature;BMP_pressure;BME280_temperature;BME280_humidity;BME280_pressure;Samples;Min_cycle;Max_cycle;Signal;HPM_P1;HPM_P2
2023/09/18 00:01:20;;;;;;;12.77;6.70;;;;;;;19.62;100.00;99684.19;4990615;28;20395;-71
2023/09/18 00:03:48;;;;;;;8.07;6.13;;;;;;;19.54;100.00;99667.94;4988595;28;20100;-71
2023/09/18 00:06:16;;;;;;;8.07;6.07;;;;;;;19.59;100.00;99673.72;4989919;28;20453;-71
2023/09/18 00:08:44;;;;;;;8.35;5.97;;;;;;;19.60;100.00;99678.13;4970544;28;20070;-71
2023/09/18 00:11:13;;;;;;;8.60;6.78;;;;;;;19.55;100.00;99664.25;4990586;28;20477;-71
2023/09/18 00:13:41;;;;;;;8.75;6.97;;;;;;;19.53;100.00;99668.94;5000109;28;20043;-71
2023/09/18 00:16:12;;;;;;;10.32;6.55;;;;;;;19.39;100.00;99639.84;4997729;28;21428;-71
2023/09/18 00:18:41;;;;;;;8.80;6.32;;;;;;;19.51;100.00;99661.06;4970291;28;20135;-71
2023/09/18 00:21:10;;;;;;;13.87;6.23;;;;;;;19.46;100.00;99657.91;4972092;28;20521;-71
2023/09/18 00:23:38;;;;;;;8.32;6.72;;;;;;;19.45;100.00;99666.13;4975057;28;20116;-71
2023/09/18 00:26:05;;;;;;;12.57;6.90;;;;;;;19.41;100.00;99653.97;4968580;28;20707;-71
2023/09/18 00:28:33;;;;;;;10.60;6.75;;;;;;;19.33;100.00;99651.19;4971623;28;20446;-71
2023/09/18 00:31:02;;;;;;;8.63;7.03;;;;;;;19.38;100.00;99654.25;4987848;28;20097;-71
2023/09/18 00:33:31;;;;;;;8.95;6.70;;;;;;;19.34;100.00;99659.09;4970562;28;23125;-72
2023/09/18 00:35:59;;;;;;;9.88;6.82;;;;;;;19.33;100.00;99656.56;4972600;28;20057;-71
2023/09/18 00:38:27;;;;;;;9.25;6.43;;;;;;;19.30;100.00;99656.84;4969332;28;20136;-70
2023/09/18 00:40:56;;;;;;;9.52;6.90;;;;;;;19.33;100.00;99645.81;4969628;28;20531;-71
2023/09/18 00:43:24;;;;;;;9.60;6.80;;;;;;;19.26;100.00;99632.97;4989932;28;20597;-71
2023/09/18 00:45:52;;;;;;;10.40;7.00;;;;;;;19.27;100.00;99629.28;4991036;28;20043;-70
2023/09/18 00:48:20;;;;;;;11.55;7.00;;;;;;;19.24;100.00;99624.22;4972076;28;20129;-71
2023/09/18 00:50:50;;;;;;;10.25;6.60;;;;;;;19.31;100.00;99629.00;4993957;28;20049;-71
2023/09/18 00:53:21;;;;;;;12.93;6.70;;;;;;;19.34;100.00;99623.34;4980015;28;20057;-71
2023/09/18 00:55:51;;;;;;;10.57;6.25;;;;;;;19.35;100.00;99620.53;5004307;28;20046;-70
2023/09/18 00:58:19;;;;;;;11.90;6.80;;;;;;;19.37;100.00;99620.34;4968367;28;20041;-70
2023/09/18 01:00:51;;;;;;;7.60;6.40;;;;;;;19.36;100.00;99616.00;4964626;28;20073;-71
2023/09/18 01:03:20;;;;;;;9.07;6.45;;;;;;;19.37;100.00;99621.19;4997332;28;20046;-71
2023/09/18 01:05:50;;;;;;;10.43;6.65;;;;;;;19.37;100.00;99617.66;4977491;28;20153;-71
2023/09/18 01:08:18;;;;;;;12.27;6.95;;;;;;;19.34;100.00;99608.09;4990591;28;20053;-70
2023/09/18 01:10:55;;;;;;;11.85;6.47;;;;;;;19.30;100.00;99597.78;4987074;28;20619;-71
2023/09/18 01:13:30;;;;;;;11.10;7.05;;;;;;;19.35;100.00;99592.81;4971624;28;20042;-71
2023/09/18 01:16:04;;;;;;;7.40;6.05;;;;;;;19.34;100.00;99588.44;4961079;28;20042;-71
2023/09/18 01:18:33;;;;;;;11.13;7.25;;;;;;;19.40;100.00;99587.84;4968990;28;20043;-69
2023/09/18 01:21:03;;;;;;;10.15;6.20;;;;;;;19.33;100.00;99574.19;4967111;28;20047;-71
2023/09/18 01:23:32;;;;;;;7.22;6.53;;;;;;;19.44;100.00;99583.88;4954907;28;20084;-71
2023/09/18 01:26:00;;;;;;;9.18;6.53;;;;;;;19.32;100.00;99566.28;4972249;28;20058;-71
2023/09/18 01:28:28;;;;;;;10.57;6.97;;;;;;;19.39;100.00;99584.31;4969529;28;20057;-71
2023/09/18 01:30:56;;;;;;;11.07;6.72;;;;;;;19.34;100.00;99591.13;4987024;28;20057;-71
2023/09/18 01:33:28;;;;;;;9.70;7.03;;;;;;;19.26;100.00;99565.00;4965475;28;20078;-71
2023/09/18 01:35:58;;;;;;;11.32;6.00;;;;;;;19.33;100.00;99586.75;4988668;28;20054;-70
2023/09/18 01:38:28;;;;;;;10.02;7.20;;;;;;;19.35;100.00;99588.31;4982643;28;20484;-70
2023/09/18 01:40:58;;;;;;;7.13;6.40;;;;;;;19.32;100.00;99593.97;4965535;28;20522;-71
2023/09/18 01:43:26;;;;;;;9.90;7.07;;;;;;;19.31;100.00;99586.91;4975840;28;20050;-70
2023/09/18 01:45:54;;;;;;;8.93;7.03;;;;;;;19.30;100.00;99581.66;4987396;28;20086;-70
2023/09/18 01:48:22;;;;;;;8.02;6.18;;;;;;;19.31;100.00;99567.25;4974789;28;20054;-70
2023/09/18 01:50:50;;;;;;;8.05;6.38;;;;;;;19.27;100.00;99575.59;4965290;28;20042;-71
2023/09/18 01:53:18;;;;;;;10.23;6.63;;;;;;;19.25;100.00;99574.91;4988424;28;20053;-70
2023/09/18 01:55:47;;;;;;;8.77;6.68;;;;;;;19.24;100.00;99567.84;4957097;28;20046;-70
2023/09/18 01:58:19;;;;;;;10.95;6.93;;;;;;;19.18;100.00;99548.81;4985053;28;20096;-70
2023/09/18 02:00:48;;;;;;;12.32;7.50;;;;;;;19.26;100.00;99565.84;4967524;28;20050;-70
2023/09/18 02:03:18;;;;;;;10.80;6.93;;;;;;;19.27;100.00;99577.44;4960477;28;20038;-70
2023/09/18 02:06:05;;;;;;;9.77;7.10;;;;;;;19.23;100.00;99571.50;4998474;28;20066;-70
2023/09/18 02:08:34;;;;;;;10.82;7.85;;;;;;;19.05;100.00;99551.78;4990527;28;20054;-70
2023/09/18 02:11:04;;;;;;;11.88;7.50;;;;;;;19.12;100.00;99578.91;4962917;28;20478;-70
2023/09/18 02:13:34;;;;;;;11.63;7.28;;;;;;;19.13;100.00;99602.06;4989214;28;20058;-70
2023/09/18 02:16:04;;;;;;;13.57;7.55;;;;;;;19.08;100.00;99629.34;4986870;28;20160;-70
2023/09/18 02:18:32;;;;;;;15.93;7.68;;;;;;;19.05;100.00;99643.03;4995128;28;20074;-70
2023/09/18 02:21:00;;;;;;;9.45;7.60;;;;;;;19.04;100.00;99672.72;4983646;28;20363;-70
2023/09/18 02:23:28;;;;;;;9.70;7.07;;;;;;;19.05;100.00;99709.28;4974489;28;20050;-70
2023/09/18 02:25:57;;;;;;;15.85;8.70;;;;;;;19.06;100.00;99705.59;4987974;28;20080;-70
2023/09/18 02:28:25;;;;;;;10.98;7.97;;;;;;;19.02;100.00;99701.53;4985744;28;20046;-70
2023/09/18 02:30:55;;;;;;;14.10;8.48;;;;;;;19.04;100.00;99700.41;4966522;28;20482;-70
2023/09/18 02:33:24;;;;;;;16.13;8.20;;;;;;;19.07;100.00;99692.03;4955939;28;20065;-70
2023/09/18 02:35:52;;;;;;;10.90;8.20;;;;;;;19.14;100.00;99695.00;4984886;28;20054;-69
2023/09/18 02:38:21;;;;;;;12.90;8.32;;;;;;;19.14;100.00;99676.22;4971962;28;20093;-71
2023/09/18 02:40:52;;;;;;;12.18;8.05;;;;;;;18.94;100.00;99643.19;4986155;28;20574;-70
2023/09/18 02:43:21;;;;;;;12.45;8.57;;;;;;;19.07;100.00;99651.78;4988640;28;20054;-70
2023/09/18 02:45:50;;;;;;;11.13;8.07;;;;;;;19.07;100.00;99646.41;4985941;28;20053;-70
2023/09/18 02:48:21;;;;;;;10.63;8.45;;;;;;;19.03;100.00;99654.94;4995539;28;20129;-70
2023/09/18 02:50:49;;;;;;;12.85;9.27;;;;;;;19.02;100.00;99658.59;4988511;28;20038;-70
2023/09/18 02:53:20;;;;;;;10.32;8.60;;;;;;;19.02;100.00;99654.06;4961274;28;20056;-71
2023/09/18 02:55:52;;;;;;;13.48;9.18;;;;;;;19.03;100.00;99633.47;4985687;28;20038;-71
2023/09/18 02:58:20;;;;;;;10.70;8.07;;;;;;;19.07;100.00;99632.16;4986166;28;20044;-71
2023/09/18 03:00:50;;;;;;;11.60;7.80;;;;;;;19.06;100.00;99623.25;4983950;28;20050;-71
2023/09/18 03:03:18;;;;;;;14.60;9.23;;;;;;;19.08;100.00;99617.75;4993489;28;20030;-70
2023/09/18 03:05:48;;;;;;;12.18;8.93;;;;;;;19.10;100.00;99618.47;4995572;28;20042;-70
2023/09/18 03:08:16;;;;;;;8.82;7.95;;;;;;;19.13;100.00;99613.66;4996611;28;20074;-70
2023/09/18 03:10:45;;;;;;;10.23;8.15;;;;;;;19.15;100.00;99606.31;4984217;28;20072;-70
2023/09/18 03:13:15;;;;;;;10.43;8.40;;;;;;;19.15;100.00;99598.25;5010898;28;20054;-71
2023/09/18 03:15:47;;;;;;;10.88;7.80;;;;;;;19.13;100.00;99594.88;4976237;28;20057;-71
2023/09/18 03:18:16;;;;;;;12.20;8.15;;;;;;;19.08;100.00;99572.97;5001176;28;20038;-70
2023/09/18 03:20:44;;;;;;;9.32;7.53;;;;;;;19.08;100.00;99558.72;4990528;28;20034;-72
2023/09/18 03:23:14;;;;;;;9.32;7.25;;;;;;;19.03;100.00;99550.28;5006996;28;20058;-70
2023/09/18 03:25:43;;;;;;;11.30;8.00;;;;;;;19.07;100.00;99546.28;4999689;28;20049;-71
2023/09/18 03:28:19;;;;;;;10.35;7.63;;;;;;;19.01;100.00;99526.28;4992408;28;20143;-71
2023/09/18 03:30:48;;;;;;;9.18;7.53;;;;;;;18.99;100.00;99525.56;4967555;28;20056;-70
2023/09/18 03:33:18;;;;;;;9.80;7.70;;;;;;;19.03;100.00;99545.75;4995048;28;20038;-71
2023/09/18 03:35:48;;;;;;;9.52;8.27;;;;;;;18.92;100.00;99532.50;4974064;28;20131;-71
2023/09/18 03:38:22;;;;;;;8.73;7.72;;;;;;;18.96;100.00;99541.97;4993865;28;20063;-71
2023/09/18 03:40:50;;;;;;;;;;;;;;;18.95;100.00;99539.41;4974489;28;20137;-70
2023/09/18 03:43:19;;;;;;;9.43;8.20;;;;;;;18.93;100.00;99544.94;4995528;28;19926;-70
2023/09/18 03:45:50;;;;;;;9.48;8.48;;;;;;;18.93;100.00;99558.34;4996208;28;20038;-71
2023/09/18 03:48:20;;;;;;;15.13;9.30;;;;;;;18.93;100.00;99550.28;4989255;28;20438;-73
2023/09/18 03:50:49;;;;;;;11.18;8.52;;;;;;;19.01;100.00;99563.00;4982929;28;20507;-71
2023/09/18 03:53:19;;;;;;;13.70;8.82;;;;;;;19.00;100.00;99570.19;4975786;28;20570;-71
2023/09/18 03:55:51;;;;;;;13.77;9.05;;;;;;;18.94;100.00;99573.44;4992743;28;20046;-71
2023/09/18 03:58:20;;;;;;;11.82;8.00;;;;;;;18.87;100.00;99567.84;4988999;28;20046;-70
2023/09/18 04:00:49;;;;;;;9.43;8.10;;;;;;;18.85;100.00;99569.81;4970334;28;20046;-70
2023/09/18 04:03:17;;;;;;;12.27;9.07;;;;;;;18.87;100.00;99575.03;4989395;28;20053;-70
2023/09/18 04:05:45;;;;;;;10.40;8.63;;;;;;;18.85;100.00;99577.00;4986655;28;20051;-70
2023/09/18 04:08:18;;;;;;;10.55;8.27;;;;;;;18.87;100.00;99580.41;4970820;28;20121;-70
2023/09/18 04:10:46;;;;;;;12.13;8.15;;;;;;;18.88;100.00;99566.00;4968171;28;20047;-71
2023/09/18 04:13:16;;;;;;;12.52;7.78;;;;;;;18.90;100.00;99575.56;4989511;28;20517;-71
2023/09/18 04:15:45;;;;;;;9.45;7.60;;;;;;;18.87;100.00;99553.56;4970016;28;20054;-70
2023/09/18 04:18:14;;;;;;;11.65;7.18;;;;;;;18.92;100.00;99567.38;4970801;28;20046;-71
2023/09/18 04:20:41;;;;;;;10.50;7.53;;;;;;;18.89;100.00;99563.13;4982166;28;20058;-72
2023/09/18 04:23:22;;;;;;;11.02;7.18;;;;;;;18.89;100.00;99567.66;4973342;28;20058;-72
2023/09/18 04:25:52;;;;;;;9.45;7.88;;;;;;;18.90;100.00;99555.94;4970294;28;20130;-72
2023/09/18 04:28:23;;;;;;;13.45;8.00;;;;;;;18.79;100.00;99556.97;4992180;28;20045;-72
2023/09/18 04:30:51;;;;;;;9.48;7.85;;;;;;;18.76;100.00;99556.41;4968023;28;20047;-71
2023/09/18 04:33:22;;;;;;;10.07;8.27;;;;;;;18.85;100.00;99577.00;4966978;28;20051;-72
2023/09/18 04:35:50;;;;;;;11.25;8.10;;;;;;;18.71;100.00;99569.41;4953364;28;20410;-72
2023/09/18 04:38:19;;;;;;;12.68;8.68;;;;;;;18.66;100.00;99552.91;4976922;28;20065;-72
2023/09/18 04:40:47;;;;;;;11.60;8.00;;;;;;;18.79;100.00;99567.69;4974766;28;20088;-72
2023/09/18 04:43:15;;;;;;;10.20;7.75;;;;;;;18.79;100.00;99558.78;4992824;28;20573;-71
2023/09/18 04:45:45;;;;;;;11.55;7.05;;;;;;;18.79;100.00;99556.13;4988854;28;20042;-71
2023/09/18 04:48:15;;;;;;;12.52;7.68;;;;;;;18.79;100.00;99550.75;4996128;28;20534;-72
2023/09/18 04:50:45;;;;;;;13.90;7.28;;;;;;;18.78;100.00;99547.22;4973603;28;20046;-71
2023/09/18 04:53:13;;;;;;;9.52;7.38;;;;;;;18.82;100.00;99545.09;4988415;28;20073;-71
2023/09/18 04:55:42;;;;;;;8.38;6.97;;;;;;;18.88;100.00;99563.31;4953378;28;20042;-71
2023/09/18 04:58:10;;;;;;;11.05;7.22;;;;;;;18.89;100.00;99564.97;4990792;28;20046;-71
2023/09/18 05:00:38;;;;;;;11.00;7.15;;;;;;;18.90;100.00;99537.16;4967627;28;20054;-72
2023/09/18 05:03:08;;;;;;;13.20;6.93;;;;;;;18.91;100.00;99512.88;4988024;28;20050;-71
2023/09/18 05:05:36;;;;;;;9.65;6.80;;;;;;;18.92;100.00;99524.44;4989722;28;20042;-71
2023/09/18 05:08:08;;;;;;;9.20;6.55;;;;;;;18.98;100.00;99526.56;4987462;28;20297;-71
2023/09/18 05:10:39;;;;;;;12.30;6.30;;;;;;;19.04;100.00;99504.53;4985828;28;20050;-71
2023/09/18 05:13:07;;;;;;;10.50;5.97;;;;;;;19.02;100.00;99486.88;4995582;28;20044;-71
2023/09/18 05:15:36;;;;;;;9.82;5.60;;;;;;;19.12;100.00;99495.72;4979963;28;20133;-71
2023/09/18 05:18:04;;;;;;;10.02;5.63;;;;;;;19.12;100.00;99483.16;4975161;28;20660;-71
2023/09/18 05:20:36;;;;;;;10.82;6.10;;;;;;;19.11;100.00;99486.81;4992194;28;20823;-71
2023/09/18 05:23:07;;;;;;;13.48;6.65;;;;;;;19.14;100.00;99504.47;4977148;28;20061;-71
2023/09/18 05:25:38;;;;;;;11.23;6.38;;;;;;;19.09;100.00;99521.00;4989472;28;20050;-71
2023/09/18 05:28:06;;;;;;;11.13;6.32;;;;;;;19.06;100.00;99523.97;4974803;28;20116;-71
2023/09/18 05:30:38;;;;;;;10.32;6.10;;;;;;;19.06;100.00;99523.97;5006224;28;20054;-71
2023/09/18 05:33:08;;;;;;;9.13;5.75;;;;;;;19.08;100.00;99526.50;5000579;28;20106;-71
2023/09/18 05:35:42;;;;;;;9.32;6.45;;;;;;;19.06;100.00;99537.38;4998474;28;20137;-72
2023/09/18 05:38:13;;;;;;;12.48;7.00;;;;;;;19.07;100.00;99549.81;4996932;28;20051;-71
2023/09/18 05:40:43;;;;;;;11.80;6.72;;;;;;;19.04;100.00;99547.44;4972569;28;20054;-70
2023/09/18 05:43:11;;;;;;;11.17;6.73;;;;;;;19.01;100.00;99557.63;4969590;28;20518;-70
2023/09/18 05:45:40;;;;;;;15.65;6.00;;;;;;;18.99;100.00;99560.44;4957471;28;20485;-71
2023/09/18 05:48:08;;;;;;;13.68;6.93;;;;;;;19.05;100.00;99580.47;4967455;28;20125;-72
2023/09/18 05:50:41;;;;;;;11.32;6.60;;;;;;;18.99;100.00;99560.44;4985538;28;20105;-72
2023/09/18 05:53:10;;;;;;;12.18;6.32;;;;;;;19.12;100.00;99585.13;4979797;28;20475;-72
2023/09/18 05:55:40;;;;;;;12.55;6.40;;;;;;;19.13;100.00;99572.56;4986763;28;20059;-72
2023/09/18 05:58:08;;;;;;;10.65;6.90;;;;;;;19.27;100.00;99588.19;4990576;28;20115;-73
2023/09/18 06:00:38;;;;;;;14.05;6.18;;;;;;;19.28;100.00;99569.25;4967351;28;20530;-71
2023/09/18 06:03:06;;;;;;;10.77;6.67;;;;;;;19.23;100.00;99574.19;4985194;28;20148;-71
2023/09/18 06:05:35;;;;;;;16.42;7.03;;;;;;;19.23;100.00;99584.09;4989774;28;20042;-73
2023/09/18 06:08:05;;;;;;;11.05;6.35;;;;;;;19.18;100.00;99587.22;4987565;28;20034;-73
2023/09/18 06:10:34;;;;;;;13.20;6.13;;;;;;;19.25;100.00;99580.28;4970197;28;20073;-71
2023/09/18 06:13:05;;;;;;;10.85;6.18;;;;;;;19.37;100.00;99563.97;4983655;28;20050;-72
2023/09/18 06:15:34;;;;;;;12.18;5.25;;;;;;;19.40;100.00;99564.53;4954744;28;20058;-71
2023/09/18 06:18:06;;;;;;;15.60;4.78;;;;;;;19.47;100.00;99567.47;4953573;28;20057;-71
2023/09/18 06:20:37;;;;;;;15.20;5.70;;;;;;;19.48;100.00;99571.84;4986391;28;20074;-71
2023/09/18 06:23:06;;;;;;;14.10;5.85;;;;;;;19.48;100.00;99563.78;4987750;28;20054;-71
2023/09/18 06:25:34;;;;;;;10.87;5.27;;;;;;;19.48;100.00;99563.78;4987490;28;20046;-72
2023/09/18 06:28:04;;;;;;;12.85;5.38;;;;;;;19.51;100.00;99574.28;4954176;28;20054;-71
2023/09/18 06:30:33;;;;;;;15.48;5.30;;;;;;;19.53;100.00;99575.78;4985836;28;20105;-70
2023/09/18 06:33:03;;;;;;;12.35;5.00;;;;;;;19.58;100.00;99576.19;4984958;28;20053;-72
2023/09/18 06:35:32;;;;;;;15.02;5.05;;;;;;;19.57;100.00;99544.97;4955320;28;20042;-71
2023/09/18 06:38:01;;;;;;;15.20;5.15;;;;;;;19.61;100.00;99565.16;4971067;28;20050;-71
2023/09/18 06:40:31;;;;;;;12.07;5.30;;;;;;;19.59;100.00;99560.94;4977613;28;20135;-72
2023/09/18 06:43:00;;;;;;;12.77;4.73;;;;;;;19.64;100.00;99560.50;4975344;28;20046;-71
2023/09/18 06:45:30;;;;;;;10.45;4.93;;;;;;;19.61;100.00;99569.69;4990790;28;20046;-72
2023/09/18 06:47:57;;;;;;;14.60;5.47;;;;;;;19.63;100.00;99574.91;4987031;28;20089;-72
2023/09/18 06:50:26;;;;;;;11.32;5.00;;;;;;;19.68;100.00;99597.63;4987074;28;20061;-71
2023/09/18 06:52:54;;;;;;;13.38;5.43;;;;;;;19.68;100.00;99597.63;4989636;28;20046;-71
2023/09/18 06:55:22;;;;;;;17.25;4.70;;;;;;;19.57;100.00;99593.31;4992087;28;20058;-70
2023/09/18 06:57:53;;;;;;;13.40;4.97;;;;;;;19.67;100.00;99600.50;4990828;28;20038;-71
2023/09/18 07:00:21;;;;;;;9.68;4.38;;;;;;;19.71;100.00;99607.22;4989672;28;20042;-71
2023/09/18 07:02:50;;;;;;;12.55;5.07;;;;;;;19.77;100.00;99618.25;4966511;28;20046;-71
2023/09/18 07:05:21;;;;;;;14.43;4.82;;;;;;;19.88;100.00;99628.78;4951556;28;20065;-71
2023/09/18 07:07:49;;;;;;;13.55;6.93;;;;;;;19.92;100.00;99635.56;4988902;28;20097;-72
2023/09/18 07:10:18;;;;;;;11.70;4.90;;;;;;;19.90;100.00;99629.47;4970666;28;20221;-72
2023/09/18 07:12:46;;;;;;;11.35;5.35;;;;;;;19.92;100.00;99615.91;4967026;28;20132;-71
2023/09/18 07:15:19;;;;;;;15.07;4.57;;;;;;;19.96;100.00;99617.28;4954380;28;20053;-73
2023/09/18 07:17:48;;;;;;;14.40;4.60;;;;;;;20.07;100.00;99627.81;4994954;28;20045;-72
2023/09/18 07:20:16;;;;;;;13.15;4.00;;;;;;;20.11;100.00;99612.25;4986626;28;20935;-73
2023/09/18 07:22:52;;;;;;;11.30;4.13;;;;;;;20.15;100.00;99621.69;4986598;28;20042;-72
2023/09/18 07:25:22;;;;;;;12.23;4.10;;;;;;;20.13;100.00;99621.84;4966652;28;20062;-71
2023/09/18 07:27:52;;;;;;;11.98;4.20;;;;;;;20.09;100.00;99615.09;4972159;28;20085;-73
2023/09/18 07:30:26;;;;;;;15.55;5.07;;;;;;;20.14;100.00;99617.31;4966816;28;20050;-70
2023/09/18 07:33:00;;;;;;;16.10;6.00;;;;;;;20.16;100.00;99626.91;4966272;28;20050;-72
2023/09/18 07:35:28;;;;;;;;;;;;;;;20.15;100.00;99624.34;4985708;28;20062;-73
2023/09/18 07:37:57;;;;;;;10.40;4.70;;;;;;;20.02;100.00;99607.75;4985850;28;19932;-71
2023/09/18 07:40:25;;;;;;;14.55;4.82;;;;;;;19.99;100.00;99624.22;4971505;28;20054;-71
2023/09/18 07:42:54;;;;;;;13.93;4.72;;;;;;;19.85;100.00;99609.41;4985814;28;20057;-71
2023/09/18 07:45:23;;;;;;;13.48;4.55;;;;;;;19.80;100.00;99628.69;4989167;28;20054;-71
2023/09/18 07:47:53;;;;;;;13.17;4.57;;;;;;;19.87;100.00;99621.72;4989336;28;20329;-71
2023/09/18 07:50:22;;;;;;;14.25;4.50;;;;;;;20.05;100.00;99642.41;4967556;28;20478;-70
2023/09/18 07:52:50;;;;;;;12.02;4.22;;;;;;;20.18;100.00;99627.59;4985590;28;20052;-71
2023/09/18 07:55:18;;;;;;;10.50;4.50;;;;;;;20.24;100.00;99639.59;4970320;28;20431;-71
2023/09/18 07:57:51;;;;;;;15.38;3.90;;;;;;;20.28;100.00;99622.19;4988304;28;20410;-72
2023/09/18 08:00:22;;;;;;;10.40;3.63;;;;;;;20.37;100.00;99620.44;4971373;28;20049;-72
2023/09/18 08:02:54;;;;;;;11.40;4.50;;;;;;;20.51;100.00;99634.19;4967021;28;20050;-73
2023/09/18 08:05:27;;;;;;;10.98;3.97;;;;;;;20.55;100.00;99638.25;4987959;28;20136;-72
2023/09/18 08:07:57;;;;;;;11.90;3.90;;;;;;;20.74;100.00;99652.56;4969098;28;20142;-72
2023/09/18 08:10:27;;;;;;;12.57;3.65;;;;;;;20.73;100.00;99654.41;4971417;28;20121;-72
2023/09/18 08:12:57;;;;;;;10.73;3.80;;;;;;;20.78;100.00;99656.63;4988324;28;20054;-72
2023/09/18 08:15:25;;;;;;;15.50;3.78;;;;;;;20.82;100.00;99641.84;4989654;28;20097;-72
2023/09/18 08:17:55;;;;;;;12.50;3.80;;;;;;;21.02;100.00;99660.34;4971110;28;20058;-73
2023/09/18 08:20:30;;;;;;;13.63;4.40;;;;;;;21.07;100.00;99651.81;4993440;28;20057;-72
2023/09/18 08:23:01;;;;;;;10.60;3.80;;;;;;;21.12;100.00;99649.47;4989471;28;20038;-72
2023/09/18 08:25:29;;;;;;;11.10;3.90;;;;;;;21.18;100.00;99635.41;4988169;28;20054;-73
2023/09/18 08:28:00;;;;;;;11.23;3.50;;;;;;;21.39;100.00;99651.22;4991757;28;20042;-71
2023/09/18 08:30:29;;;;;;;10.63;3.70;;;;;;;21.45;100.00;99650.56;4993402;28;20054;-71
2023/09/18 08:32:59;;;;;;;11.85;3.72;;;;;;;21.50;100.00;99652.81;4971156;28;20043;-73
2023/09/18 08:35:30;;;;;;;11.98;3.85;;;;;;;21.49;100.00;99646.56;4975506;28;20042;-72
2023/09/18 08:37:58;;;;;;;12.50;4.20;;;;;;;21.50;100.00;99653.66;4987416;28;20038;-73
2023/09/18 08:40:30;;;;;;;12.65;4.38;;;;;;;21.56;100.00;99653.03;4989452;28;20054;-72
2023/09/18 08:43:10;;;;;;;11.90;4.15;;;;;;;21.61;100.00;99649.81;4989251;28;20076;-73
2023/09/18 08:45:47;;;;;;;14.68;4.15;;;;;;;21.67;100.00;99641.09;5007354;23;20053;-73
2023/09/18 08:48:17;;;;;;;11.38;3.85;;;;;;;21.63;100.00;99637.88;4989259;28;20050;-76
2023/09/18 08:50:46;;;;;;;12.05;3.75;;;;;;;21.64;100.00;99649.50;4976104;28;20038;-72
2023/09/18 08:53:15;;;;;;;11.20;3.42;;;;;;;21.68;100.00;99645.50;4972712;28;20093;-75
2023/09/18 08:55:43;;;;;;;9.90;3.67;;;;;;;21.64;100.00;99625.25;4975468;28;20051;-76
2023/09/18 09:01:06;;;;;;;12.45;3.08;;;;;;;21.51;100.00;99628.41;4972548;28;20129;-77
2023/09/18 09:03:35;;;;;;;13.00;3.35;;;;;;;21.69;100.00;99617.53;4965059;28;20039;-72
2023/09/18 09:06:04;;;;;;;7.72;3.10;;;;;;;21.60;100.00;99602.34;4989005;28;20058;-75
2023/09/18 09:08:33;;;;;;;8.13;2.90;;;;;;;21.49;100.00;99611.56;4993747;28;20049;-75
2023/09/18 09:11:00;;;;;;;9.88;3.00;;;;;;;21.41;100.00;99626.84;4986925;28;20513;-73
2023/09/18 09:13:29;;;;;;;9.57;3.03;;;;;;;21.12;100.00;99617.19;4968632;28;20058;-74
2023/09/18 09:16:12;;;;;;;10.80;3.20;;;;;;;20.91;100.00;99620.25;4960427;28;20034;-76
2023/09/18 09:18:51;;;;;;;9.57;3.22;;;;;;;20.90;100.00;99623.09;4969480;28;20046;-74
2023/09/18 09:21:20;;;;;;;8.02;3.10;;;;;;;20.97;100.00;99622.28;4992963;28;20058;-72
2023/09/18 09:23:51;;;;;;;12.88;2.97;;;;;;;21.02;100.00;99635.28;4964638;28;20554;-74
2023/09/18 09:26:22;;;;;;;8.88;3.33;;;;;;;20.94;100.00;99630.69;4968543;28;20319;-73
2023/09/18 09:28:52;;;;;;;9.93;3.40;;;;;;;20.96;100.00;99631.38;4960040;28;20050;-76
2023/09/18 09:31:27;;;;;;;6.47;2.70;;;;;;;20.90;100.00;99629.31;4970628;28;20034;-71
2023/09/18 09:33:58;;;;;;;10.23;3.00;;;;;;;20.75;100.00;99624.66;4969835;28;20038;-72
2023/09/18 09:36:25;;;;;;;;;;;;;;;20.66;100.00;99621.88;4975506;28;20155;-73
2023/09/18 09:38:56;;;;;;;10.20;2.25;;;;;;;20.58;100.00;99629.91;4987415;28;20013;-77
2023/09/18 09:41:27;;;;;;;10.15;2.97;;;;;;;20.49;100.00;99636.19;4974692;28;20050;-75
2023/09/18 09:43:56;;;;;;;7.35;3.05;;;;;;;20.46;100.00;99631.09;4981657;28;20050;-74
2023/09/18 09:46:27;;;;;;;10.70;3.03;;;;;;;20.39;100.00;99639.94;4981981;28;20058;-75
2023/09/18 09:49:01;;;;;;;8.80;3.13;;;;;;;20.36;100.00;99657.22;4981450;28;20109;-75
2023/09/18 09:51:34;;;;;;;8.93;3.03;;;;;;;20.32;100.00;99658.50;4998594;28;20137;-73
2023/09/18 09:54:02;;;;;;;11.40;2.80;;;;;;;20.35;100.00;99660.03;4994499;28;20106;-73
2023/09/18 09:56:47;;;;;;;8.60;2.40;;;;;;;20.33;100.00;99652.13;5004339;28;20117;-73
2023/09/18 09:59:17;;;;;;;8.68;2.20;;;;;;;20.35;100.00;99658.19;4995771;28;20562;-83
2023/09/18 10:01:48;;;;;;;;;;;;;;;20.37;100.00;99669.69;4986718;28;20050;-77
2023/09/18 10:04:21;;;;;;;11.75;2.55;;;;;;;20.36;100.00;99681.44;5001890;28;19922;-77
2023/09/18 10:06:53;;;;;;;9.60;3.00;;;;;;;20.38;100.00;99675.91;5009300;28;20055;-75
2023/09/18 10:09:23;;;;;;;6.97;2.00;;;;;;;20.33;100.00;99671.78;5009741;28;20042;-75
2023/09/18 10:11:55;;;;;;;4.10;1.73;;;;;;;20.45;100.00;99674.31;5012564;28;20093;-72
2023/09/18 10:14:31;;;;;;;4.68;1.60;;;;;;;20.56;100.00;99674.06;4989618;28;20073;-71
2023/09/18 10:17:18;;;;;;;7.50;1.50;;;;;;;20.54;100.00;99681.44;4981828;28;20049;-71
2023/09/18 10:20:00;;;;;;;8.18;1.55;;;;;;;20.56;100.00;99691.06;4997485;28;20060;-75
2023/09/18 10:22:37;;;;;;;3.67;1.27;;;;;;;20.75;100.00;99684.69;5012860;28;20511;-74
2023/09/18 10:25:11;;;;;;;3.50;1.25;;;;;;;20.75;100.00;99700.00;4985285;28;20054;-73
2023/09/18 10:27:41;;;;;;;7.43;1.58;;;;;;;20.74;100.00;99695.59;4996410;28;20108;-73
2023/09/18 10:30:12;;;;;;;5.70;1.40;;;;;;;20.77;100.00;99696.16;4998112;28;20057;-73
2023/09/18 10:32:45;;;;;;;5.32;1.52;;;;;;;20.89;100.00;99684.16;4998466;28;20055;-72
2023/09/18 10:35:15;;;;;;;6.28;1.60;;;;;;;21.01;100.00;99668.59;4976352;28;20082;-71
2023/09/18 10:37:44;;;;;;;;;;;;;;;21.35;100.00;99677.63;4984136;28;20042;-71
2023/09/18 10:40:12;;;;;;;5.78;1.58;;;;;;;21.27;100.00;99680.25;4983502;28;19921;-71
2023/09/18 10:42:42;;;;;;;4.45;1.33;;;;;;;21.27;100.00;99674.03;4964823;28;20506;-73
2023/09/18 10:45:12;;;;;;;6.30;2.10;;;;;;;21.15;100.00;99622.25;4987418;28;20062;-70
2023/09/18 10:47:43;;;;;;;6.30;1.52;;;;;;;21.62;100.00;99664.97;4978763;28;20057;-71
2023/09/18 10:50:10;;;;;;;3.15;1.15;;;;;;;21.68;100.00;99680.53;4991907;28;20601;-72
2023/09/18 10:52:44;;;;;;;4.22;1.05;;;;;;;21.82;100.00;99652.13;4989371;28;20043;-80
2023/09/18 10:55:13;;;;;;;5.20;1.45;;;;;;;21.93;100.00;99666.16;4963569;28;20050;-77
2023/09/18 10:57:52;;;;;;;5.63;1.33;;;;;;;22.03;100.00;99672.31;4990125;28;20052;-70
2023/09/18 11:00:25;;;;;;;4.00;1.10;;;;;;;22.09;100.00;99675.34;4988609;28;20101;-71
2023/09/18 11:02:53;;;;;;;4.38;1.20;;;;;;;22.25;100.00;99675.38;4972981;28;20069;-75
2023/09/18 11:05:31;;;;;;;3.10;1.20;;;;;;;22.44;100.00;99671.56;4997999;28;20042;-71
2023/09/18 11:08:30;;;;;;;3.03;1.40;;;;;;;22.48;100.00;99673.78;4989789;28;20693;-72
2023/09/18 11:11:09;;;;;;;5.18;1.60;;;;;;;22.54;100.00;99673.09;4932717;28;20042;-71
2023/09/18 11:13:41;;;;;;;3.43;1.53;;;;;;;22.77;100.00;99680.59;4984999;28;20356;-74
2023/09/18 11:16:18;;;;;;;5.03;1.67;;;;;;;22.90;100.00;99686.34;4987364;28;20112;-71
2023/09/18 11:18:55;;;;;;;5.63;1.70;;;;;;;23.02;100.00;99683.13;4995416;28;20538;-72
2023/09/18 11:21:28;;;;;;;3.65;1.20;;;;;;;23.11;100.00;99696.63;4989834;28;20058;-71
2023/09/18 11:24:03;;;;;;;6.57;1.35;;;;;;;22.93;100.00;99689.56;4983291;28;20511;-72
2023/09/18 11:26:32;;;;;;;2.80;1.20;;;;;;;22.83;100.00;99688.00;4988134;28;20050;-72
2023/09/18 11:29:04;;;;;;;4.20;1.20;;;;;;;22.84;100.00;99682.44;4970962;28;20263;-71
2023/09/18 11:31:49;;;;;;;3.95;1.75;;;;;;;22.98;100.00;99686.34;4971722;28;20053;-71
2023/09/18 11:34:22;;;;;;;4.78;1.20;;;;;;;23.07;100.00;99685.31;4964696;28;20096;-75
2023/09/18 11:36:51;;;;;;;2.40;1.25;;;;;;;23.20;100.00;99687.50;4990078;28;20057;-72
2023/09/18 11:39:37;;;;;;;2.97;1.25;;;;;;;23.15;100.00;99703.38;4985349;28;20057;-72